METAR Data
IDs: Format: Raw Decoded Include TAF

Data at: 1303 UTC 26 Feb 2021

KI69 261255Z AUTO 09007KT 10SM CLR 00/M03 A3029 RMK AO2 T00001032